Time;durP1;ratioP1;P1;durP2;ratioP2;P2;SDS_P1;SDS_P2;PMS_P1;PMS_P2;Temp;Humidity;BMP_temperature;BMP_pressure;BME280_temperature;BME280_humidity;BME280_pressure;Samples;Min_cycle;Max_cycle;Signal;HPM_P1;HPM_P2
2023/04/27 04:30:54;;;;;;;;;11.25;11.25;;;;;14.23;55.33;101316.38;5083505;27;46506;-72
2023/04/27 04:33:20;;;;;;;;;13.75;12.50;;;;;14.16;55.57;101307.72;5070405;28;45296;-75
2023/04/27 04:35:45;;;;;;;;;12.25;12.25;;;;;14.19;55.08;101310.28;5056955;28;45438;-72
2023/04/27 04:38:11;;;;;;;;;16.50;11.00;;;;;14.22;55.28;101310.09;5056376;28;45594;-73
2023/04/27 04:40:37;;;;;;;;;14.75;13.50;;;;;14.22;54.98;101303.84;5056632;28;45515;-73
2023/04/27 04:43:03;;;;;;;;;10.00;10.00;;;;;14.23;54.79;101308.28;5056419;28;45300;-71
2023/04/27 04:45:28;;;;;;;;;10.75;9.25;;;;;14.23;54.55;101305.59;5056941;28;45360;-72
2023/04/27 04:47:54;;;;;;;;;14.75;10.75;;;;;14.16;54.54;101288.84;5056122;28;45619;-72
2023/04/27 04:50:19;;;;;;;;;10.25;9.00;;;;;14.25;54.66;101304.56;5056699;28;47009;-73
2023/04/27 04:52:45;;;;;;;;;8.25;8.00;;;;;14.24;53.96;101293.84;5063141;28;45418;-72
2023/04/27 04:55:10;;;;;;;;;9.50;9.50;;;;;14.24;53.52;101310.03;5056887;28;45276;-71
2023/04/27 04:57:36;;;;;;;;;11.00;9.25;;;;;14.14;53.79;101282.66;5038449;28;45506;-71
2023/04/27 05:00:02;;;;;;;;;6.25;6.25;;;;;14.27;54.15;101296.41;5056672;28;45977;-73
2023/04/27 05:02:28;;;;;;;;;11.00;10.25;;;;;14.27;53.88;101309.88;5056208;28;45326;-73
2023/04/27 05:04:55;;;;;;;;;10.50;8.75;;;;;14.26;54.02;101305.44;5054693;28;45400;-71
2023/04/27 05:07:20;;;;;;;;;10.50;10.50;;;;;14.27;53.55;101312.59;5056190;28;46495;-72
2023/04/27 05:09:46;;;;;;;;;13.25;12.25;;;;;14.29;53.75;101311.53;5056625;28;46524;-76
2023/04/27 05:12:11;;;;;;;;;12.00;12.00;;;;;14.29;53.79;101310.69;5054703;28;45377;-71
2023/04/27 05:14:36;;;;;;;;;10.00;10.00;;;;;14.21;53.50;101297.56;5056467;28;45394;-72
2023/04/27 05:17:02;;;;;;;;;12.25;11.00;;;;;14.24;53.21;101301.94;5055641;28;51091;-73
2023/04/27 05:19:28;;;;;;;;;14.00;12.00;;;;;14.29;53.14;101316.06;5056269;28;46032;-72
2023/04/27 05:21:53;;;;;;;;;13.50;11.75;;;;;14.23;53.53;101313.69;5071483;28;45492;-72
2023/04/27 05:24:19;;;;;;;;;13.75;11.00;;;;;14.31;53.63;101311.44;5076751;28;45515;-73
2023/04/27 05:26:44;;;;;;;;;10.50;10.50;;;;;14.33;53.03;101313.13;5074260;28;45561;-71
2023/04/27 05:29:10;;;;;;;;;13.00;13.00;;;;;14.24;52.88;101296.53;5064644;28;46048;-74
2023/04/27 05:31:36;;;;;;;;;13.00;11.25;;;;;14.33;52.15;101315.81;5064359;27;45245;-73
2023/04/27 05:34:01;;;;;;;;;12.50;11.50;;;;;14.35;52.58;101310.34;5085196;27;45365;-73
2023/04/27 05:36:28;;;;;;;;;2.50;2.50;;;;;14.34;52.84;101311.31;5076158;28;45386;-73
2023/04/27 05:38:54;;;;;;;;;8.25;8.00;;;;;14.22;52.48;101284.97;5076171;28;45936;-71
2023/04/27 05:41:19;;;;;;;;;9.50;8.25;;;;;14.37;52.32;101308.47;5076227;28;45375;-71
2023/04/27 05:43:45;;;;;;;;;10.00;10.00;;;;;14.32;51.94;101303.28;5076050;28;45414;-76
2023/04/27 05:46:14;;;;;;;;;16.00;10.00;;;;;14.33;52.53;101307.72;5075621;28;45307;-76
2023/04/27 05:48:40;;;;;;;;;9.50;9.50;;;;;14.28;52.29;101301.72;5076180;28;45410;-73
2023/04/27 05:51:05;;;;;;;;;15.00;13.25;;;;;14.25;52.47;101287.50;5075855;28;45394;-75
2023/04/27 05:53:32;;;;;;;;;14.75;12.00;;;;;14.30;52.88;101294.41;5064882;28;45350;-74
2023/04/27 05:55:58;;;;;;;;;13.00;13.00;;;;;14.29;52.46;101291.81;5094883;27;45523;-76
2023/04/27 05:58:23;;;;;;;;;15.50;13.00;;;;;14.39;53.04;101303.88;5096446;27;45361;-75
2023/04/27 06:00:49;;;;;;;;;15.50;13.50;;;;;14.35;52.85;101295.03;5096283;27;45392;-73
2023/04/27 06:03:15;;;;;;;;;11.75;11.75;;;;;14.42;53.22;101309.09;5084461;27;45375;-73
2023/04/27 06:05:40;;;;;;;;;11.75;11.50;;;;;14.50;53.40;101314.09;5075474;28;45441;-73
2023/04/27 06:08:05;;;;;;;;;13.50;13.50;;;;;14.49;53.26;101306.94;5075145;28;45768;-75
2023/04/27 06:10:31;;;;;;;;;13.00;13.00;;;;;14.55;53.47;101309.31;5075441;27;45196;-73
2023/04/27 06:12:56;;;;;;;;;10.50;9.75;;;;;14.55;52.57;101307.47;5075882;28;45378;-73
2023/04/27 06:15:21;;;;;;;;;4.75;4.75;;;;;14.57;53.07;101310.09;5075606;28;45397;-74
2023/04/27 06:17:47;;;;;;;;;10.25;10.25;;;;;14.60;52.64;101308.13;5075284;28;45351;-73
2023/04/27 06:20:12;;;;;;;;;12.25;12.25;;;;;14.61;52.81;101300.91;5076808;27;45339;-73
2023/04/27 06:22:38;;;;;;;;;11.00;11.00;;;;;14.72;52.77;101310.16;5096054;27;45346;-73
2023/04/27 06:25:06;;;;;;;;;14.50;13.00;;;;;14.65;52.80;101291.69;5095832;27;45402;-73
2023/04/27 06:27:32;;;;;;;;;14.25;12.00;;;;;14.75;52.33;101298.31;5095592;27;45472;-72
2023/04/27 06:29:58;;;;;;;;;13.25;13.25;;;;;14.80;52.04;101300.78;5095763;27;45349;-72
2023/04/27 06:32:23;;;;;;;;;15.75;13.75;;;;;14.81;52.55;101300.69;5095293;27;45346;-73
2023/04/27 06:34:49;;;;;;;;;10.75;10.75;;;;;14.92;52.25;101308.19;5077072;27;45562;-72
2023/04/27 06:37:15;;;;;;;;;11.50;11.00;;;;;14.96;51.55;101317.91;5075240;28;45232;-72
2023/04/27 06:39:42;;;;;;;;;12.25;10.75;;;;;14.89;51.74;101303.84;5075210;28;45326;-73
2023/04/27 06:42:07;;;;;;;;;15.25;12.75;;;;;14.98;51.70;101315.97;5068790;27;45357;-73
2023/04/27 06:44:33;;;;;;;;;9.25;9.25;;;;;15.04;51.37;101330.03;5076180;27;45376;-76
2023/04/27 06:46:58;;;;;;;;;11.75;10.75;;;;;15.04;51.27;101316.50;5074838;28;45762;-75
2023/04/27 06:49:23;;;;;;;;;14.25;14.25;;;;;15.07;51.20;101324.44;5074865;28;45500;-70
2023/04/27 06:51:49;;;;;;;;;12.75;12.75;;;;;15.05;51.49;101315.56;5080101;27;48633;-70
2023/04/27 06:54:15;;;;;;;;;12.00;9.50;;;;;15.08;51.46;101309.97;5077045;27;45573;-72
2023/04/27 06:56:41;;;;;;;;;13.25;13.25;;;;;15.08;50.91;101312.66;5074837;28;45628;-71
2023/04/27 06:59:07;;;;;;;;;13.00;10.50;;;;;15.07;50.56;101305.53;5074623;28;45348;-73
2023/04/27 07:01:32;;;;;;;;;14.00;14.00;;;;;15.12;50.48;101318.78;5074904;27;45513;-70
2023/04/27 07:03:57;;;;;;;;;10.50;10.00;;;;;15.11;50.09;101317.03;5074706;28;45268;-73
2023/04/27 07:06:24;;;;;;;;;14.50;12.50;;;;;15.23;50.50;101326.28;5074803;28;47039;-72
2023/04/27 07:08:50;;;;;;;;;15.00;15.00;;;;;15.24;49.64;101319.91;5074683;28;45495;-71
2023/04/27 07:11:16;;;;;;;;;11.50;8.25;;;;;15.29;49.22;101315.13;5074868;28;45582;-72
2023/04/27 07:13:41;;;;;;;;;12.25;11.00;;;;;15.30;48.92;101312.34;5074486;27;45335;-71
2023/04/27 07:16:06;;;;;;;;;11.75;10.50;;;;;15.33;49.14;101297.78;5074549;28;45367;-71
2023/04/27 07:18:32;;;;;;;;;16.25;14.50;;;;;15.45;48.73;101300.69;5074525;28;45449;-72
2023/04/27 07:20:57;;;;;;;;;11.50;10.00;;;;;15.38;48.85;101280.38;5082458;27;45547;-71
2023/04/27 07:23:23;;;;;;;;;14.25;13.25;;;;;15.44;48.41;101287.25;5071323;28;45244;-70
2023/04/27 07:25:49;;;;;;;;;12.50;11.25;;;;;15.52;48.63;101293.94;5075393;28;47644;-72
2023/04/27 07:28:15;;;;;;;;;12.75;11.50;;;;;15.55;48.39;101297.47;5075282;27;45919;-69
2023/04/27 07:30:41;;;;;;;;;15.25;13.50;;;;;15.56;48.56;101296.53;5093556;27;45449;-69
2023/04/27 07:33:07;;;;;;;;;14.00;10.50;;;;;15.59;48.47;101297.19;5094464;27;45444;-71
2023/04/27 07:35:32;;;;;;;;;14.25;10.75;;;;;15.67;48.04;101311.13;5094296;27;45445;-71
2023/04/27 07:38:02;;;;;;;;;13.00;12.00;;;;;15.75;48.14;101316.09;5075856;27;45461;-73
2023/04/27 07:40:28;;;;;;;;;12.50;12.50;;;;;15.79;47.64;101296.03;5079133;27;45331;-70
2023/04/27 07:42:54;;;;;;;;;11.75;10.00;;;;;15.83;48.14;101292.19;5076084;27;45709;-72
2023/04/27 07:45:20;;;;;;;;;10.50;10.50;;;;;15.94;47.61;101294.25;5078170;27;46180;-72
2023/04/27 07:47:46;;;;;;;;;9.00;9.00;;;;;15.99;47.71;101297.59;5075112;27;45419;-72
2023/04/27 07:50:15;;;;;;;;;11.25;11.25;;;;;16.11;47.53;101303.13;5074330;28;45414;-73
2023/04/27 07:52:42;;;;;;;;;12.25;11.25;;;;;16.13;47.04;101305.72;5080311;27;45533;-73
2023/04/27 07:55:08;;;;;;;;;13.00;10.00;;;;;16.11;46.81;101286.88;5076679;28;46392;-72
2023/04/27 07:57:34;;;;;;;;;12.50;9.75;;;;;16.15;46.52;101306.53;5077516;28;45369;-72
2023/04/27 07:59:59;;;;;;;;;9.75;9.75;;;;;16.00;46.55;101278.53;5077792;28;45294;-72
2023/04/27 08:02:29;;;;;;;;;12.50;12.50;;;;;16.12;46.21;101295.88;5077194;28;45563;-71
2023/04/27 08:04:54;;;;;;;;;9.75;9.75;;;;;16.07;46.35;101287.19;5077665;27;45486;-72
2023/04/27 08:07:20;;;;;;;;;9.25;9.25;;;;;16.13;45.77;101300.31;5070690;27;45462;-73
2023/04/27 08:09:45;;;;;;;;;12.00;10.25;;;;;16.19;46.20;101308.94;5098249;27;45271;-72
2023/04/27 08:12:10;;;;;;;;;9.75;9.75;;;;;16.21;45.76;101306.16;5098127;27;45239;-72
2023/04/27 08:14:36;;;;;;;;;9.00;9.00;;;;;16.19;45.23;101313.47;5079473;27;46793;-72
2023/04/27 08:17:01;;;;;;;;;8.50;7.25;;;;;16.20;45.39;101310.69;5097622;27;45313;-73
2023/04/27 08:19:26;;;;;;;;;10.50;8.75;;;;;16.23;45.40;101305.09;5097947;27;45382;-72
2023/04/27 08:21:52;;;;;;;;;7.00;7.00;;;;;16.27;45.64;101313.88;5097592;27;46671;-71
2023/04/27 08:24:20;;;;;;;;;8.00;8.00;;;;;16.30;45.62;101305.59;5097884;27;45334;-71
2023/04/27 08:26:45;;;;;;;;;6.00;6.00;;;;;16.33;45.86;101291.00;5079773;27;45343;-72
2023/04/27 08:29:11;;;;;;;;;9.00;8.00;;;;;16.31;45.46;101274.00;5093279;27;45329;-73
2023/04/27 08:31:36;;;;;;;;;13.75;9.75;;;;;16.42;45.15;101285.00;5095328;27;45381;-71
2023/04/27 08:34:01;;;;;;;;;8.00;7.25;;;;;16.42;44.74;101279.59;5084653;27;45409;-72
2023/04/27 08:36:27;;;;;;;;;9.75;8.25;;;;;16.35;44.73;101268.28;5095831;27;45503;-72
2023/04/27 08:38:53;;;;;;;;;8.00;8.00;;;;;16.40;45.02;101278.84;5097539;27;45493;-71
2023/04/27 08:41:20;;;;;;;;;7.25;7.25;;;;;16.50;45.08;101288.13;5097255;27;45568;-70
2023/04/27 08:43:48;;;;;;;;;5.50;5.50;;;;;16.47;44.47;101283.78;5097329;27;47324;-72
2023/04/27 08:46:16;;;;;;;;;7.25;7.25;;;;;16.54;44.77;101287.84;5097496;27;45287;-71
2023/04/27 08:48:41;;;;;;;;;8.75;6.00;;;;;16.61;44.60;101283.81;5096271;27;45324;-72
2023/04/27 08:51:13;;;;;;;;;8.00;7.50;;;;;16.69;44.54;101285.16;5094574;27;45697;-72
2023/04/27 08:53:55;;;;;;;;;10.50;8.25;;;;;16.72;44.65;101279.56;5069456;28;45875;-71
2023/04/27 08:56:23;;;;;;;;;8.50;8.00;;;;;16.79;44.67;101275.50;5086708;27;45157;-73
2023/04/27 08:58:50;;;;;;;;;9.25;9.25;;;;;16.80;44.85;101274.53;5065539;27;45559;-72
2023/04/27 09:01:15;;;;;;;;;8.25;8.25;;;;;16.86;44.83;101271.44;5070087;28;45446;-72
2023/04/27 09:03:41;;;;;;;;;7.25;7.25;;;;;16.91;44.86;101274.75;5092788;27;45479;-73
2023/04/27 09:06:07;;;;;;;;;8.00;7.00;;;;;16.96;45.17;101270.75;5096590;27;45381;-72
2023/04/27 09:08:49;;;;;;;;;9.50;9.50;;;;;17.03;45.17;101265.81;5097474;27;45389;-72
2023/04/27 09:11:27;;;;;;;;;9.50;7.75;;;;;16.97;44.86;101248.13;5096892;27;45506;-72
2023/04/27 09:13:52;;;;;;;;;10.50;9.00;;;;;17.14;44.75;101270.53;5096762;27;46264;-72
2023/04/27 09:16:22;;;;;;;;;8.25;8.25;;;;;17.19;44.84;101271.09;5096922;27;45533;-72
2023/04/27 09:18:48;;;;;;;;;11.00;9.50;;;;;17.22;45.05;101271.78;5058744;28;45403;-73
2023/04/27 09:21:21;;;;;;;;;8.25;8.25;;;;;17.25;44.60;101274.31;5086464;27;45496;-72
2023/04/27 09:23:47;;;;;;;;;8.50;8.00;;;;;17.26;44.35;101264.34;5075634;28;46225;-70
2023/04/27 09:26:26;;;;;;;;;11.00;8.00;;;;;17.36;44.75;101274.44;5075102;28;45265;-71
2023/04/27 09:28:56;;;;;;;;;9.25;7.50;;;;;17.34;45.27;101267.41;5064573;28;45480;-71
2023/04/27 09:31:30;;;;;;;;;6.00;6.00;;;;;17.45;44.79;101278.41;5088679;27;45510;-73
2023/04/27 09:33:56;;;;;;;;;6.25;6.25;;;;;17.49;45.39;101274.53;5084664;27;45342;-73
2023/04/27 09:36:22;;;;;;;;;8.25;7.50;;;;;17.56;44.59;101280.41;5076456;27;45323;-73
2023/04/27 09:38:50;;;;;;;;;11.50;6.75;;;;;17.59;44.36;101274.78;5077043;27;45442;-72
2023/04/27 09:41:16;;;;;;;;;9.50;8.75;;;;;17.65;44.65;101260.84;5076180;28;45557;-71
2023/04/27 09:43:44;;;;;;;;;12.00;9.00;;;;;17.70;44.37;101267.69;5076529;28;46109;-71
2023/04/27 09:46:13;;;;;;;;;8.25;6.50;;;;;17.72;44.64;101259.44;5075994;28;45600;-74
2023/04/27 09:48:40;;;;;;;;;8.00;6.25;;;;;17.82;44.78;101251.56;5076698;27;45573;-72
2023/04/27 09:51:06;;;;;;;;;6.25;6.25;;;;;17.88;44.98;101253.84;5076164;28;45321;-74
2023/04/27 09:53:37;;;;;;;;;7.00;7.00;;;;;17.96;44.50;101257.78;5064359;28;47452;-73
2023/04/27 09:56:40;;;;;;;;;5.50;5.50;;;;;18.09;44.76;101261.41;5083039;27;45342;-73
2023/04/27 09:59:39;;;;;;;;;5.50;5.50;;;;;18.12;43.94;101263.03;5096655;27;45456;-73
2023/04/27 10:02:06;;;;;;;;;7.00;6.00;;;;;18.11;44.07;101264.03;5096382;27;45366;-72
2023/04/27 10:05:24;;;;;;;;;6.50;6.00;;;;;18.17;44.39;101268.16;5096506;27;47526;-73
2023/04/27 10:07:51;;;;;;;;;9.00;9.00;;;;;18.20;43.76;101254.38;5040329;28;45651;-73
2023/04/27 10:10:17;;;;;;;;;8.50;7.00;;;;;18.29;44.43;101257.28;5075606;28;45228;-71
2023/04/27 10:12:43;;;;;;;;;8.00;8.00;;;;;18.36;44.54;101268.63;5075803;28;45313;-71
2023/04/27 10:15:15;;;;;;;;;10.00;8.75;;;;;18.33;44.17;101247.97;5075392;28;45280;-72
2023/04/27 10:17:49;;;;;;;;;6.75;6.50;;;;;18.35;43.94;101240.59;5074427;27;45165;-73
2023/04/27 10:20:15;;;;;;;;;8.25;6.00;;;;;18.41;44.73;101237.44;5077088;27;45353;-73
2023/04/27 10:22:44;;;;;;;;;5.25;5.25;;;;;18.36;44.12;101225.19;5096026;27;45361;-72
2023/04/27 10:25:18;;;;;;;;;5.00;5.00;;;;;18.44;45.43;101239.94;5095875;27;45553;-71
2023/04/27 10:27:48;;;;;;;;;5.50;5.50;;;;;18.45;46.04;101235.38;5096209;27;45307;-72
2023/04/27 10:30:16;;;;;;;;;6.25;6.25;;;;;18.40;44.38;101234.81;5096061;27;45405;-73
2023/04/27 10:32:54;;;;;;;;;6.00;6.00;;;;;18.38;44.77;101236.78;5070562;27;45888;-72
2023/04/27 10:35:21;;;;;;;;;6.00;5.50;;;;;18.35;44.35;101231.59;5071350;28;45570;-72
2023/04/27 10:37:46;;;;;;;;;7.50;7.50;;;;;18.37;45.03;101232.34;5075224;28;45512;-72
2023/04/27 10:40:13;;;;;;;;;6.00;6.00;;;;;18.45;45.15;101238.97;5075255;28;45537;-72
2023/04/27 10:42:45;;;;;;;;;5.25;4.75;;;;;18.45;44.72;101236.25;5075131;28;45326;-74
2023/04/27 10:45:14;;;;;;;;;5.00;5.00;;;;;18.37;44.66;101233.19;5075036;28;46223;-72
2023/04/27 10:47:44;;;;;;;;;5.00;3.00;;;;;18.41;44.52;101239.28;5074661;27;45350;-72
2023/04/27 10:50:14;;;;;;;;;4.75;4.75;;;;;18.43;45.05;101240.06;5075045;28;45372;-71
2023/04/27 10:52:42;;;;;;;;;6.00;6.00;;;;;18.44;44.78;101239.06;5080161;27;45644;-71
2023/04/27 10:55:19;;;;;;;;;5.25;5.25;;;;;18.47;44.45;101234.28;5075503;28;45352;-73
2023/04/27 10:57:54;;;;;;;;;5.00;5.00;;;;;18.47;44.85;101233.41;5075010;28;45346;-72
2023/04/27 11:00:24;;;;;;;;;8.00;7.00;;;;;18.51;44.81;101238.53;5075215;28;45322;-72
2023/04/27 11:02:50;;;;;;;;;5.00;5.00;;;;;18.49;45.18;101215.16;5074754;28;45319;-72
2023/04/27 11:05:22;;;;;;;;;4.25;4.25;;;;;18.65;44.67;101213.13;5074634;28;46414;-72
2023/04/27 11:07:47;;;;;;;;;6.50;6.50;;;;;18.77;44.84;101208.66;5075005;28;45394;-72
2023/04/27 11:10:17;;;;;;;;;4.25;4.00;;;;;18.89;44.68;101195.03;5074771;27;45359;-72
2023/04/27 11:12:44;;;;;;;;;4.00;3.00;;;;;19.12;42.27;101203.38;5075005;28;45446;-72
2023/04/27 11:15:10;;;;;;;;;4.50;4.50;;;;;19.19;41.88;101204.63;5074409;28;46188;-71
2023/04/27 11:17:36;;;;;;;;;6.00;6.00;;;;;19.23;42.51;101187.09;5074431;28;45376;-73
2023/04/27 11:20:04;;;;;;;;;5.75;5.75;;;;;19.49;43.30;101193.31;5074494;28;46065;-73
2023/04/27 11:22:30;;;;;;;;;4.75;4.75;;;;;19.72;43.24;101184.28;5085005;27;46152;-74
2023/04/27 11:24:55;;;;;;;;;7.50;7.50;;;;;19.94;41.99;101176.19;5094777;27;47104;-73
2023/04/27 11:27:22;;;;;;;;;7.50;7.00;;;;;20.10;42.14;101177.69;5094951;27;45232;-74
2023/04/27 11:29:48;;;;;;;;;3.75;3.75;;;;;20.16;41.00;101169.06;5094473;27;45334;-71
2023/04/27 11:32:18;;;;;;;;;3.00;3.00;;;;;20.08;40.15;101152.44;5094307;27;45512;-74
2023/04/27 11:34:51;;;;;;;;;3.00;3.00;;;;;20.24;40.74;101167.47;5076489;27;45350;-72
2023/04/27 11:37:26;;;;;;;;;4.00;4.00;;;;;20.39;41.06;101171.72;5074354;28;45455;-72
2023/04/27 11:39:53;;;;;;;;;7.00;5.00;;;;;20.48;40.64;101151.06;5074410;28;45351;-72
2023/04/27 11:42:24;;;;;;;;;5.50;5.00;;;;;20.55;40.22;101144.13;5056287;28;46397;-71
2023/04/27 11:45:06;;;;;;;;;3.75;3.75;;;;;20.52;39.62;101157.09;5074309;28;46057;-73
2023/04/27 11:47:34;;;;;;;;;7.00;4.50;;;;;20.48;39.76;101129.25;5074154;28;45297;-72
2023/04/27 11:50:03;;;;;;;;;2.75;2.50;;;;;20.54;39.32;101136.06;5074515;28;45293;-72
2023/04/27 11:52:31;;;;;;;;;5.25;4.00;;;;;20.54;39.84;101136.06;5081015;27;45528;-73
2023/04/27 11:54:57;;;;;;;;;5.00;3.75;;;;;20.59;39.80;101131.97;5074305;28;45309;-73
2023/04/27 11:57:28;;;;;;;;;4.00;4.00;;;;;20.53;39.89;101117.97;5074321;28;45247;-73
2023/04/27 11:59:56;;;;;;;;;3.75;1.50;;;;;20.60;40.16;101133.69;5074564;28;45334;-72
2023/04/27 12:02:22;;;;;;;;;1.75;1.75;;;;;20.59;40.39;101133.81;5073951;28;45398;-72
2023/04/27 12:04:50;;;;;;;;;5.50;5.50;;;;;20.49;40.20;101121.97;5074135;28;45252;-73
2023/04/27 12:07:17;;;;;;;;;5.00;5.00;;;;;20.52;40.55;101128.00;5074043;28;45329;-71
2023/04/27 12:09:42;;;;;;;;;6.50;5.75;;;;;20.55;40.97;101125.03;5074175;28;45347;-72
2023/04/27 12:12:09;;;;;;;;;5.25;5.25;;;;;20.52;40.98;101125.28;5073573;28;45420;-73
2023/04/27 12:14:34;;;;;;;;;5.00;5.00;;;;;20.48;40.17;101120.22;5074116;28;45758;-73
2023/04/27 12:17:00;;;;;;;;;4.00;4.00;;;;;20.55;39.85;101125.03;5073935;28;45369;-72
2023/04/27 12:19:25;;;;;;;;;5.00;4.00;;;;;20.60;39.81;101121.94;5074098;28;45470;-72
2023/04/27 12:21:52;;;;;;;;;4.00;4.00;;;;;20.67;39.68;101123.19;5088694;27;45562;-73
2023/04/27 12:24:17;;;;;;;;;5.00;5.00;;;;;20.69;40.38;101119.31;5094265;27;45477;-73
2023/04/27 12:26:43;;;;;;;;;4.75;4.75;;;;;20.64;39.91;101107.94;5093897;27;45301;-72
2023/04/27 12:29:08;;;;;;;;;6.25;5.75;;;;;20.79;39.87;101113.97;5094332;27;45303;-72
2023/04/27 12:31:34;;;;;;;;;4.75;4.75;;;;;20.86;39.98;101107.03;5056570;28;46064;-72
2023/04/27 12:34:00;;;;;;;;;4.00;4.00;;;;;20.92;39.83;101103.81;5081875;27;45832;-72
2023/04/27 12:36:26;;;;;;;;;3.50;3.50;;;;;21.06;40.46;101111.69;5073473;27;45891;-71
2023/04/27 12:38:53;;;;;;;;;4.75;4.75;;;;;21.17;39.54;101115.38;5073965;28;45371;-73
2023/04/27 12:41:22;;;;;;;;;3.25;3.25;;;;;21.27;39.67;101106.31;5074623;28;45422;-72
2023/04/27 12:43:47;;;;;;;;;4.25;4.25;;;;;21.52;39.44;101105.94;5077014;28;45461;-73
2023/04/27 12:46:13;;;;;;;;;4.25;4.25;;;;;21.62;39.40;101091.50;5076660;28;45273;-72
2023/04/27 12:48:38;;;;;;;;;4.75;4.75;;;;;21.73;39.08;101094.19;5077324;28;45173;-73
2023/04/27 12:51:05;;;;;;;;;4.75;4.25;;;;;21.83;38.88;101103.31;5076815;28;45458;-72
2023/04/27 12:53:31;;;;;;;;;6.25;6.25;;;;;21.84;39.05;101094.97;5077906;27;47095;-73
2023/04/27 12:55:59;;;;;;;;;6.50;6.50;;;;;21.89;38.46;101089.97;5097426;27;45398;-74
2023/04/27 12:58:25;;;;;;;;;5.25;5.25;;;;;22.01;38.65;101096.25;5066253;28;45384;-74
2023/04/27 13:00:50;;;;;;;;;5.25;5.00;;;;;22.25;38.87;101091.34;5096445;27;45607;-74
2023/04/27 13:03:15;;;;;;;;;5.50;5.50;;;;;22.43;38.38;101082.50;5097238;27;45379;-73
2023/04/27 13:05:41;;;;;;;;;5.50;4.50;;;;;22.68;37.44;101065.59;5096952;27;49085;-72
2023/04/27 13:08:06;;;;;;;;;5.75;5.75;;;;;22.89;37.04;101063.66;5066059;28;45235;-73
2023/04/27 13:10:31;;;;;;;;;5.25;4.50;;;;;23.11;37.17;101067.16;5096427;27;45198;-72
2023/04/27 13:12:58;;;;;;;;;5.00;5.00;;;;;23.57;36.71;101070.03;5096867;27;46434;-73
2023/04/27 13:15:23;;;;;;;;;4.75;4.75;;;;;23.82;35.27;101073.19;5097233;27;45238;-73
2023/04/27 13:17:51;;;;;;;;;4.00;4.00;;;;;23.77;35.34;101070.88;5065868;28;45761;-74
2023/04/27 13:20:17;;;;;;;;;3.25;3.25;;;;;23.70;36.30;101070.59;5076970;27;45570;-72
2023/04/27 13:22:42;;;;;;;;;7.00;5.00;;;;;23.53;35.28;101087.75;5096844;27;46328;-73
2023/04/27 13:25:08;;;;;;;;;3.50;3.50;;;;;23.32;35.92;101089.75;5096979;27;45375;-73
2023/04/27 13:27:34;;;;;;;;;4.75;4.00;;;;;22.99;36.07;101074.59;5097293;27;45379;-73
2023/04/27 13:29:59;;;;;;;;;2.75;2.75;;;;;22.77;36.27;101073.00;5096767;27;45476;-73
2023/04/27 13:32:25;;;;;;;;;3.75;3.75;;;;;22.50;36.54;101076.34;5096237;27;46030;-74
2023/04/27 13:34:50;;;;;;;;;3.00;3.00;;;;;22.26;37.24;101090.34;5078155;27;45475;-71
2023/04/27 13:37:16;;;;;;;;;3.75;3.75;;;;;22.06;38.19;101083.06;5076594;28;45150;-71
2023/04/27 13:39:41;;;;;;;;;3.50;3.50;;;;;21.88;37.79;101087.38;5058169;28;45541;-72
2023/04/27 13:42:07;;;;;;;;;7.50;5.00;;;;;21.64;38.38;101086.78;5076466;28;46352;-72
2023/04/27 13:44:32;;;;;;;;;2.75;2.75;;;;;21.53;38.76;101093.16;5076209;28;45482;-73
2023/04/27 13:46:57;;;;;;;;;3.00;3.00;;;;;21.34;39.47;101085.72;5076390;28;45318;-74
2023/04/27 13:49:23;;;;;;;;;2.50;2.50;;;;;21.17;39.67;101083.56;5076050;28;45198;-73
2023/04/27 13:51:48;;;;;;;;;4.00;4.00;;;;;21.01;39.85;101064.00;5080565;27;46742;-72
2023/04/27 13:54:13;;;;;;;;;4.25;4.25;;;;;20.94;40.08;101076.41;5077803;27;45521;-73
2023/04/27 13:56:39;;;;;;;;;3.75;3.75;;;;;20.81;40.36;101073.84;5076370;28;45274;-73
2023/04/27 13:59:04;;;;;;;;;4.75;4.75;;;;;20.76;40.66;101076.94;5075949;28;45322;-72
2023/04/27 14:01:30;;;;;;;;;4.50;4.50;;;;;20.65;40.95;101048.88;5068478;27;47120;-71
2023/04/27 14:03:55;;;;;;;;;5.00;5.00;;;;;20.67;40.86;101072.25;5078385;27;45446;-72
2023/04/27 14:06:20;;;;;;;;;5.25;5.00;;;;;20.63;41.47;101069.94;5057880;28;45335;-72
2023/04/27 14:08:46;;;;;;;;;6.75;5.00;;;;;20.69;40.90;101077.59;5075874;28;45252;-72
2023/04/27 14:11:11;;;;;;;;;5.25;5.25;;;;;20.69;41.34;101069.41;5075960;28;45375;-73
2023/04/27 14:13:37;;;;;;;;;3.75;3.75;;;;;20.62;41.12;101055.44;5075534;28;45354;-71
2023/04/27 14:16:02;;;;;;;;;2.75;2.75;;;;;20.63;41.22;101042.69;5075829;28;45462;-72
2023/04/27 14:18:28;;;;;;;;;3.25;3.25;;;;;20.51;41.81;101025.50;5075672;28;45437;-72
2023/04/27 14:20:54;;;;;;;;;3.25;3.25;;;;;20.59;41.36;101043.91;5082824;27;45292;-72
2023/04/27 14:23:20;;;;;;;;;4.00;4.00;;;;;20.60;41.83;101032.91;5095954;27;45410;-72
2023/04/27 14:25:46;;;;;;;;;4.00;4.00;;;;;20.50;41.59;101029.19;5096265;27;45303;-72
2023/04/27 14:28:13;;;;;;;;;3.50;3.50;;;;;20.52;42.01;101029.06;5081815;27;45288;-71
2023/04/27 14:30:39;;;;;;;;;4.00;4.00;;;;;20.48;42.17;101019.44;5084655;27;46081;-73
2023/04/27 14:33:05;;;;;;;;;3.75;3.75;;;;;20.31;42.03;101001.75;5083611;27;45296;-71
2023/04/27 14:35:34;;;;;;;;;3.00;3.00;;;;;20.37;42.04;101032.09;5075456;28;45354;-73
2023/04/27 14:38:03;;;;;;;;;3.50;2.25;;;;;20.31;42.11;101032.56;5074611;28;45310;-74
2023/04/27 14:40:29;;;;;;;;;5.25;3.00;;;;;20.26;42.17;101023.88;5074993;28;47239;-73
2023/04/27 14:42:54;;;;;;;;;2.00;2.00;;;;;20.27;42.19;101027.47;5074958;28;45455;-72
2023/04/27 14:45:20;;;;;;;;;3.00;3.00;;;;;20.27;42.61;101022.91;5075185;28;45330;-70
2023/04/27 14:47:45;;;;;;;;;2.00;2.00;;;;;20.32;42.43;101017.09;5085809;27;45371;-75
2023/04/27 14:50:10;;;;;;;;;5.00;4.00;;;;;20.39;42.24;101030.13;5075263;28;46007;-75
2023/04/27 14:52:36;;;;;;;;;2.75;2.75;;;;;20.41;42.52;101010.94;5082628;27;45345;-75
2023/04/27 14:55:01;;;;;;;;;2.75;2.75;;;;;20.45;42.08;101016.97;5075620;28;45368;-74
2023/04/27 14:57:27;;;;;;;;;1.75;1.75;;;;;20.49;42.10;101008.44;5075266;28;45481;-74
2023/04/27 14:59:52;;;;;;;;;2.25;2.25;;;;;20.51;42.55;101000.97;5085355;27;45526;-76
2023/04/27 15:02:18;;;;;;;;;4.50;3.50;;;;;20.50;42.21;100995.69;5078020;27;45328;-75
2023/04/27 15:04:44;;;;;;;;;3.50;2.00;;;;;20.54;42.01;100997.13;5080809;27;45325;-76
2023/04/27 15:07:09;;;;;;;;;2.75;2.75;;;;;20.52;42.05;100993.66;5072573;27;45857;-75
2023/04/27 15:09:40;;;;;;;;;2.00;2.00;;;;;20.55;41.64;100993.44;5091467;27;47213;-75
2023/04/27 15:12:06;;;;;;;;;2.50;2.50;;;;;20.55;41.89;100986.13;5088473;27;45456;-75
2023/04/27 15:14:32;;;;;;;;;4.25;4.00;;;;;20.51;42.47;100967.41;5093676;27;45606;-75
2023/04/27 15:16:58;;;;;;;;;3.75;2.00;;;;;20.54;42.16;100972.63;5091932;27;45695;-74
2023/04/27 15:19:23;;;;;;;;;3.00;3.00;;;;;20.59;42.64;100983.97;5092488;27;46221;-76
2023/04/27 15:21:48;;;;;;;;;4.00;4.00;;;;;20.51;42.76;100964.69;5089439;27;45495;-75
2023/04/27 15:24:14;;;;;;;;;4.00;4.00;;;;;20.59;42.92;100973.94;5093251;27;45475;-75
2023/04/27 15:26:40;;;;;;;;;5.00;5.00;;;;;20.62;43.52;100976.44;5076968;27;45560;-72
2023/04/27 15:29:06;;;;;;;;;4.25;4.25;;;;;20.69;43.27;100971.31;5074842;28;46080;-71
2023/04/27 15:31:31;;;;;;;;;4.00;4.00;;;;;20.59;43.73;100954.03;5074215;28;45236;-72
2023/04/27 15:33:56;;;;;;;;;6.25;4.75;;;;;20.67;43.57;100963.28;5083205;27;45335;-71
2023/04/27 15:36:22;;;;;;;;;4.00;4.00;;;;;20.73;44.12;100968.22;5074359;28;45387;-72
2023/04/27 15:38:48;;;;;;;;;4.50;4.50;;;;;20.70;45.02;100957.56;5074265;28;45938;-72
2023/04/27 15:41:14;;;;;;;;;7.00;5.00;;;;;20.71;45.36;100962.03;5074362;28;45277;-72
2023/04/27 15:43:39;;;;;;;;;3.75;3.25;;;;;20.73;45.32;100962.78;5074474;27;45317;-72
2023/04/27 15:46:05;;;;;;;;;6.50;6.50;;;;;20.69;45.68;100954.97;5073772;28;45338;-71
2023/04/27 15:48:30;;;;;;;;;5.00;5.00;;;;;20.61;47.54;100947.47;5074416;28;45908;-72
2023/04/27 15:50:56;;;;;;;;;4.50;4.50;;;;;20.66;47.20;100958.84;5074099;28;45548;-73